Time;durP1;ratioP1;P1;durP2;ratioP2;P2;SDS_P1;SDS_P2;PMS_P1;PMS_P2;Temp;Humidity;BMP_temperature;BMP_pressure;BME280_temperature;BME280_humidity;BME280_pressure;Samples;Min_cycle;Max_cycle;Signal;HPM_P1;HPM_P2
2021/04/03 00:02:12;;;;;;;27.23;14.63;;;;;;;29.86;51.15;100792.28;5047399;28;66201;-36
2021/04/03 00:04:42;;;;;;;23.00;18.27;;;;;;;29.97;51.61;100799.72;5055669;28;69984;-35
2021/04/03 00:07:13;;;;;;;25.58;22.90;;;;;;;30.05;52.88;100799.47;5038367;28;65956;-36
2021/04/03 00:09:43;;;;;;;35.25;25.55;;;;;;;30.12;53.96;100799.44;5052227;28;69093;-36
2021/04/03 00:12:16;;;;;;;30.20;26.70;;;;;;;30.19;54.14;100814.56;5047475;28;65718;-36
2021/04/03 00:14:47;;;;;;;44.50;28.00;;;;;;;30.21;54.51;100807.06;5052540;28;69959;-37
2021/04/03 00:17:17;;;;;;;39.90;29.95;;;;;;;30.24;55.48;100817.47;5048645;28;66330;-37
2021/04/03 00:19:51;;;;;;;37.55;26.98;;;;;;;30.28;56.39;100829.53;5044173;28;69006;-35
2021/04/03 00:22:26;;;;;;;31.10;25.35;;;;;;;30.34;56.14;100840.53;5049122;28;65683;-37
2021/04/03 00:24:56;;;;;;;31.83;22.85;;;;;;;30.38;56.49;100836.34;5032681;28;70522;-35
2021/04/03 00:27:27;;;;;;;28.95;23.30;;;;;;;30.45;56.66;100835.25;5047018;28;65391;-35
2021/04/03 00:29:57;;;;;;;22.80;20.50;;;;;;;30.41;56.79;100844.03;5050160;28;68352;-36
2021/04/03 00:32:27;;;;;;;21.90;19.63;;;;;;;30.39;55.75;100840.69;5048667;28;66465;-36
2021/04/03 00:34:57;;;;;;;29.15;20.10;;;;;;;30.33;56.87;100847.00;5052441;28;69686;-36
2021/04/03 00:37:27;;;;;;;28.05;18.48;;;;;;;30.37;57.40;100842.78;5055878;28;64962;-35
2021/04/03 00:39:57;;;;;;;20.85;17.85;;;;;;;30.45;58.29;100850.66;5041993;28;69446;-35
2021/04/03 00:42:28;;;;;;;24.35;17.33;;;;;;;30.46;57.98;100842.31;5054771;28;65061;-36
2021/04/03 00:44:59;;;;;;;21.88;17.08;;;;;;;30.58;58.00;100857.88;5044814;28;69761;-36
2021/04/03 00:47:30;;;;;;;22.02;17.00;;;;;;;30.62;58.77;100851.81;5043649;28;65496;-35
2021/04/03 00:50:01;;;;;;;20.27;16.08;;;;;;;30.67;59.14;100857.41;5048693;28;69847;-36
2021/04/03 00:52:32;;;;;;;19.02;17.10;;;;;;;30.65;59.15;100867.59;5055364;28;65341;-36
2021/04/03 00:55:08;;;;;;;18.88;16.20;;;;;;;30.70;59.47;100865.06;5049817;28;71190;-38
2021/04/03 00:57:40;;;;;;;22.80;15.93;;;;;;;30.76;59.25;100873.34;5046765;28;66776;-36
2021/04/03 01:00:12;;;;;;;17.98;15.25;;;;;;;30.77;59.49;100883.16;5049273;28;69978;-36
2021/04/03 01:02:44;;;;;;;18.42;15.20;;;;;;;30.79;59.00;100878.34;5055646;28;66211;-36
2021/04/03 01:05:22;;;;;;;16.20;14.65;;;;;;;30.78;59.71;100879.38;5043031;28;69267;-36
2021/04/03 01:07:56;;;;;;;15.90;14.60;;;;;;;30.76;59.34;100884.19;5051255;28;67066;-36
2021/04/03 01:10:31;;;;;;;15.77;14.32;;;;;;;30.82;60.09;100897.72;5048948;28;69148;-36
2021/04/03 01:13:09;;;;;;;14.98;13.82;;;;;;;30.87;60.10;100902.47;5044927;28;66278;-36
2021/04/03 01:15:43;;;;;;;15.13;13.65;;;;;;;30.90;60.03;100908.28;5042541;28;70120;-36
2021/04/03 01:18:54;;;;;;;18.08;13.65;;;;;;;30.88;60.45;100915.78;5052959;28;66247;-38
2021/04/03 01:21:36;;;;;;;18.30;14.10;;;;;;;30.95;61.15;100915.72;5020093;28;70223;-38
2021/04/03 01:24:36;;;;;;;14.73;13.40;;;;;;;30.94;60.99;100914.91;5038513;28;66349;-37
2021/04/03 01:27:15;;;;;;;14.93;13.73;;;;;;;30.99;61.26;100916.97;5042345;28;68768;-38
2021/04/03 01:30:05;;;;;;;14.38;13.20;;;;;;;31.04;60.53;100921.72;5038682;28;66357;-37
2021/04/03 01:32:52;;;;;;;13.98;13.05;;;;;;;31.02;60.57;100927.38;5024998;28;69282;-37
2021/04/03 01:35:35;;;;;;;13.05;12.13;;;;;;;31.06;60.13;100916.91;5039297;28;65714;-37
2021/04/03 01:38:20;;;;;;;13.30;12.23;;;;;;;31.06;60.37;100927.75;5041962;28;69842;-37
2021/04/03 01:40:52;;;;;;;13.38;12.38;;;;;;;31.10;59.92;100929.81;5050260;28;64753;-36
2021/04/03 01:43:29;;;;;;;14.38;13.00;;;;;;;31.01;60.58;100912.16;5054586;28;69098;-36
2021/04/03 01:46:05;;;;;;;15.05;13.80;;;;;;;31.16;60.18;100931.63;5041829;28;65835;-38
2021/04/03 01:48:41;;;;;;;14.68;13.25;;;;;;;31.22;60.47;100932.63;5044628;28;69294;-38
2021/04/03 01:51:13;;;;;;;15.68;14.15;;;;;;;31.19;60.16;100937.66;5048374;28;65970;-38
2021/04/03 01:53:45;;;;;;;17.33;15.57;;;;;;;31.24;60.19;100935.13;5039887;28;69405;-38
2021/04/03 01:56:19;;;;;;;16.00;14.57;;;;;;;31.27;60.15;100942.81;5037299;28;65906;-38
2021/04/03 01:58:52;;;;;;;16.23;14.70;;;;;;;31.29;59.76;100938.81;5041366;28;71087;-38
2021/04/03 02:01:23;;;;;;;16.30;14.90;;;;;;;31.26;60.28;100950.09;5037259;28;67050;-38
2021/04/03 02:03:57;;;;;;;17.45;15.25;;;;;;;31.24;59.69;100943.25;5025676;28;71097;-39
2021/04/03 02:06:30;;;;;;;19.20;17.60;;;;;;;31.31;59.83;100952.13;5043054;28;65400;-38
2021/04/03 02:09:20;;;;;;;17.52;16.13;;;;;;;31.30;59.94;100948.59;5049128;28;69842;-38
2021/04/03 02:11:53;;;;;;;17.15;15.95;;;;;;;31.40;59.63;100950.84;5033257;28;66314;-37
2021/04/03 02:14:53;;;;;;;17.00;15.63;;;;;;;31.29;59.64;100927.16;5050070;28;69861;-38
2021/04/03 02:17:29;;;;;;;17.45;16.08;;;;;;;31.29;59.16;100927.16;5052377;28;66014;-37
2021/04/03 02:20:02;;;;;;;19.63;17.60;;;;;;;31.47;59.31;100943.47;5053832;28;70015;-37
2021/04/03 02:22:34;;;;;;;18.60;16.98;;;;;;;31.51;59.32;100947.41;5051239;28;66569;-38
2021/04/03 02:25:15;;;;;;;17.85;16.33;;;;;;;31.48;58.84;100944.28;5053249;28;72353;-37
2021/04/03 02:27:46;;;;;;;18.67;16.90;;;;;;;31.47;59.12;100951.59;5049771;28;65884;-37
2021/04/03 02:30:38;;;;;;;16.88;15.68;;;;;;;31.52;59.13;100953.66;5049879;28;68980;-37
2021/04/03 02:33:09;;;;;;;17.55;16.08;;;;;;;31.54;59.29;100938.81;5056263;28;66736;-37
2021/04/03 02:35:40;;;;;;;16.35;15.15;;;;;;;31.58;59.23;100937.31;5036642;28;70022;-38
2021/04/03 02:38:13;;;;;;;15.77;14.77;;;;;;;31.59;59.09;100944.41;5049046;28;65220;-38
2021/04/03 02:40:57;;;;;;;17.08;15.50;;;;;;;31.60;59.34;100940.63;5048831;28;44131;-39
2021/04/03 02:43:55;;;;;;;14.80;13.85;;;;;;;31.54;59.13;100938.81;5050404;28;66138;-38
2021/04/03 02:46:38;;;;;;;16.15;14.65;;;;;;;31.68;59.13;100941.38;5044779;28;70036;-39
2021/04/03 02:49:17;;;;;;;14.45;13.45;;;;;;;31.68;59.10;100936.81;5047434;28;65817;-37
2021/04/03 02:51:54;;;;;;;15.25;14.10;;;;;;;31.67;59.42;100928.88;5019199;28;69766;-38
2021/04/03 02:54:29;;;;;;;14.30;13.20;;;;;;;31.68;59.03;100935.97;5045709;28;66243;-36
2021/04/03 02:57:09;;;;;;;13.55;12.43;;;;;;;31.64;59.14;100919.31;5035405;28;70010;-37
2021/04/03 02:59:49;;;;;;;20.60;16.42;;;;;;;31.75;59.17;100925.88;5046935;28;65916;-37
2021/04/03 03:02:23;;;;;;;19.08;17.67;;;;;;;31.87;59.28;100924.06;5056459;28;70112;-36
2021/04/03 03:04:55;;;;;;;22.65;19.35;;;;;;;31.87;59.62;100924.06;5037917;28;65186;-36
2021/04/03 03:07:27;;;;;;;20.48;18.55;;;;;;;31.88;59.76;100924.91;5041343;28;69486;-38
2021/04/03 03:09:59;;;;;;;20.70;18.90;;;;;;;31.91;59.36;100925.31;5044145;28;65653;-37
2021/04/03 03:12:34;;;;;;;20.38;18.58;;;;;;;31.96;59.65;100922.75;5050487;28;68988;-37
2021/04/03 03:15:06;;;;;;;21.58;19.38;;;;;;;32.00;59.35;100906.84;5039557;28;67554;-37
2021/04/03 03:17:38;;;;;;;21.58;19.13;;;;;;;32.04;59.75;100908.06;5047877;28;69948;-39
2021/04/03 03:20:10;;;;;;;19.45;17.63;;;;;;;31.95;58.62;100910.22;5046217;28;65907;-39
2021/04/03 03:22:44;;;;;;;17.85;16.38;;;;;;;31.81;57.58;100908.69;5042157;28;70576;-38
2021/04/03 03:25:19;;;;;;;22.77;16.95;;;;;;;31.73;56.21;100895.44;5042376;28;65677;-37
2021/04/03 03:27:51;;;;;;;18.25;16.33;;;;;;;31.70;55.19;100890.47;5046556;28;69193;-37
2021/04/03 03:30:24;;;;;;;18.02;15.30;;;;;;;31.67;54.48;100891.75;5046443;28;66508;-38
2021/04/03 03:32:58;;;;;;;16.38;14.70;;;;;;;31.61;53.44;100881.81;5036237;28;69980;-37
2021/04/03 03:35:31;;;;;;;15.65;14.38;;;;;;;31.55;52.26;100878.13;5055559;28;65492;-36
2021/04/03 03:38:04;;;;;;;15.05;13.50;;;;;;;31.50;50.91;100872.53;5066286;28;70375;-37
2021/04/03 03:40:36;;;;;;;14.50;13.32;;;;;;;31.47;50.61;100870.28;5049211;28;66487;-38
2021/04/03 03:43:15;;;;;;;14.45;13.15;;;;;;;31.43;50.38;100873.69;5039589;28;69891;-38
2021/04/03 03:45:51;;;;;;;13.23;12.32;;;;;;;31.35;49.71;100861.22;5049909;28;65764;-38
2021/04/03 03:48:22;;;;;;;13.75;12.35;;;;;;;31.30;49.97;100861.88;5055325;28;69999;-37
2021/04/03 03:50:53;;;;;;;13.63;12.27;;;;;;;31.31;49.36;100854.56;5056666;28;65157;-38
2021/04/03 03:53:23;;;;;;;11.95;11.15;;;;;;;31.38;49.05;100849.94;5038946;28;69099;-38
2021/04/03 03:55:55;;;;;;;11.60;10.80;;;;;;;31.33;49.03;100844.34;5050238;28;64948;-36
2021/04/03 03:58:27;;;;;;;12.40;11.20;;;;;;;31.32;48.58;100826.44;5046909;28;70005;-36
2021/04/03 04:01:04;;;;;;;11.52;10.55;;;;;;;31.29;47.64;100835.00;5045231;28;66199;-40
2021/04/03 04:03:35;;;;;;;11.45;10.45;;;;;;;31.25;47.41;100818.34;5048949;28;69766;-37
2021/04/03 04:06:14;;;;;;;16.35;10.52;;;;;;;31.26;46.54;100816.47;5053978;28;66106;-36
2021/04/03 04:08:50;;;;;;;11.45;10.45;;;;;;;31.20;46.51;100810.06;5053072;28;69928;-38
2021/04/03 04:11:23;;;;;;;10.32;9.57;;;;;;;31.20;46.05;100811.94;5047365;28;66322;-38
2021/04/03 04:13:59;;;;;;;10.43;9.60;;;;;;;31.20;45.49;100809.22;5047659;28;70106;-38
2021/04/03 04:16:50;;;;;;;11.05;10.13;;;;;;;31.22;45.17;100809.84;5048005;28;65564;-37
2021/04/03 04:19:25;;;;;;;10.95;10.00;;;;;;;31.25;44.69;100790.41;5037577;28;69520;-38
2021/04/03 04:22:02;;;;;;;10.50;9.13;;;;;;;31.20;44.29;100798.41;5038603;28;66249;-36
2021/04/03 04:24:32;;;;;;;9.00;8.50;;;;;;;31.13;44.50;100798.47;5040440;28;69272;-37
2021/04/03 04:27:07;;;;;;;10.20;9.45;;;;;;;31.09;45.05;100787.25;5034875;28;66378;-37
2021/04/03 04:29:39;;;;;;;9.27;8.75;;;;;;;31.14;43.88;100787.41;5036301;28;70197;-37
2021/04/03 04:32:16;;;;;;;9.32;8.63;;;;;;;31.15;43.55;100786.38;5029232;28;66322;-38
2021/04/03 04:34:47;;;;;;;8.48;7.97;;;;;;;31.15;43.93;100780.13;5034945;28;70893;-38
2021/04/03 04:37:19;;;;;;;9.38;8.63;;;;;;;31.10;43.39;100778.06;5032231;28;65220;-38
2021/04/03 04:39:54;;;;;;;8.82;8.05;;;;;;;31.13;43.72;100772.19;5029402;28;68992;-37
2021/04/03 04:42:26;;;;;;;10.88;7.80;;;;;;;31.08;43.95;100769.34;5029248;28;67160;-37
2021/04/03 04:45:00;;;;;;;9.30;7.88;;;;;;;31.10;42.77;100761.00;5030974;28;70482;-39
2021/04/03 04:47:31;;;;;;;8.20;7.30;;;;;;;31.13;42.17;100755.13;5027366;28;66003;-38
2021/04/03 04:50:04;;;;;;;8.20;7.50;;;;;;;31.03;42.44;100733.94;5052307;28;69683;-38
2021/04/03 04:52:36;;;;;;;7.50;7.05;;;;;;;31.13;42.04;100750.53;5031578;28;66347;-38
2021/04/03 04:55:08;;;;;;;11.48;7.18;;;;;;;31.15;42.20;100743.00;5024347;28;69853;-39
2021/04/03 04:57:46;;;;;;;7.35;6.95;;;;;;;31.11;41.38;100741.78;5041122;28;67217;-38
2021/04/03 05:00:22;;;;;;;7.47;6.82;;;;;;;31.13;41.21;100728.84;5033334;28;70179;-38
2021/04/03 05:03:11;;;;;;;7.20;6.60;;;;;;;31.21;41.53;100724.19;5050181;28;67519;-39
2021/04/03 05:05:42;;;;;;;6.97;6.47;;;;;;;31.23;41.29;100722.06;5050275;28;71380;-36
2021/04/03 05:08:12;;;;;;;7.03;6.57;;;;;;;31.21;40.98;100713.34;5054523;28;65805;-37
2021/04/03 05:10:43;;;;;;;7.20;6.70;;;;;;;31.20;40.59;100707.09;5056527;28;70294;-37
2021/04/03 05:13:14;;;;;;;9.13;5.82;;;;;;;31.26;40.50;100705.34;5045369;28;66390;-41
2021/04/03 05:15:44;;;;;;;7.75;6.97;;;;;;;31.22;41.88;100701.44;5034620;28;70006;-41
2021/04/03 05:18:14;;;;;;;6.60;6.20;;;;;;;31.24;41.35;100691.22;5047775;28;65366;-40
2021/04/03 05:20:45;;;;;;;7.45;6.80;;;;;;;31.16;41.28;100679.63;5041303;28;69042;-41
2021/04/03 05:23:19;;;;;;;12.70;6.20;;;;;;;31.08;40.41;100677.22;5040702;28;66536;-42
2021/04/03 05:25:51;;;;;;;6.40;5.90;;;;;;;31.13;41.15;100674.66;5032376;28;68703;-41
2021/04/03 05:28:21;;;;;;;7.32;6.00;;;;;;;31.10;40.54;100658.88;5037367;28;65942;-41
2021/04/03 05:30:52;;;;;;;6.20;5.90;;;;;;;31.11;39.86;100649.66;5041817;28;69967;-40
2021/04/03 05:33:22;;;;;;;6.68;6.05;;;;;;;31.14;39.86;100638.38;5043871;28;64507;-41
2021/04/03 05:35:53;;;;;;;9.40;6.03;;;;;;;31.10;39.52;100641.78;5032213;28;69977;-40
2021/04/03 05:38:26;;;;;;;6.30;5.85;;;;;;;31.06;39.24;100624.31;5036681;28;66144;-40
2021/04/03 05:40:57;;;;;;;6.18;5.38;;;;;;;31.07;38.62;100626.81;5045832;28;70050;-40
2021/04/03 05:43:28;;;;;;;6.18;5.85;;;;;;;31.06;39.01;100625.13;5037601;28;64894;-41
2021/04/03 05:45:59;;;;;;;7.90;6.33;;;;;;;31.13;38.11;100615.06;5039192;28;70304;-41
2021/04/03 05:48:31;;;;;;;5.82;5.53;;;;;;;31.13;37.92;100604.22;5033411;28;65733;-42
2021/04/03 05:51:01;;;;;;;6.47;6.07;;;;;;;31.15;38.22;100604.81;5041512;28;69605;-42
2021/04/03 05:53:32;;;;;;;6.15;5.85;;;;;;;31.03;37.94;100587.66;5047907;28;65114;-41
2021/04/03 05:56:04;;;;;;;7.57;6.00;;;;;;;31.15;38.28;100602.13;5044345;28;70583;-41
2021/04/03 05:58:36;;;;;;;7.25;6.35;;;;;;;31.23;37.94;100600.13;5041828;28;66791;-40
2021/04/03 06:01:07;;;;;;;6.78;6.32;;;;;;;31.20;37.54;100595.16;5045656;28;68716;-40
2021/04/03 06:03:38;;;;;;;6.60;6.20;;;;;;;31.16;37.73;100584.78;5048362;28;66110;-41
2021/04/03 06:06:11;;;;;;;6.38;5.93;;;;;;;31.16;36.89;100575.84;5047818;28;70277;-41
2021/04/03 06:08:43;;;;;;;6.40;6.10;;;;;;;31.19;37.16;100585.41;5049192;28;66132;-41
2021/04/03 06:11:15;;;;;;;6.90;6.40;;;;;;;31.19;37.13;100574.56;5047592;28;69916;-41
2021/04/03 06:13:57;;;;;;;;;;;;;;;31.03;36.32;100576.00;5048159;28;66128;-41
2021/04/03 06:16:31;;;;;;;14.07;6.50;;;;;;;31.23;37.53;100578.44;5044002;28;69067;-41
2021/04/03 06:19:09;;;;;;;11.18;6.90;;;;;;;31.20;36.82;100568.06;5046955;28;65570;-41
2021/04/03 06:21:42;;;;;;;7.95;6.95;;;;;;;31.26;37.14;100551.75;5040761;28;69509;-43
2021/04/03 06:24:30;;;;;;;16.85;6.55;;;;;;;31.19;36.92;100542.03;5044013;28;66388;-41
2021/04/03 06:27:06;;;;;;;12.20;6.15;;;;;;;31.29;38.02;100532.31;5036268;28;70426;-41
2021/04/03 06:29:46;;;;;;;12.18;6.50;;;;;;;31.42;37.47;100546.72;5033775;28;66219;-40
2021/04/03 06:32:33;;;;;;;6.90;6.40;;;;;;;31.31;36.64;100540.19;5035063;28;69372;-41
2021/04/03 06:35:04;;;;;;;7.47;6.28;;;;;;;31.41;36.68;100532.34;5028767;28;65277;-40
2021/04/03 06:37:36;;;;;;;10.70;6.82;;;;;;;31.44;36.78;100523.75;5049167;28;69490;-39
2021/04/03 06:40:10;;;;;;;;;;;;;;;31.23;36.38;100525.09;5029766;28;66248;-40
2021/04/03 06:42:57;;;;;;;7.60;6.45;;;;;;;31.37;36.36;100523.03;5035621;28;69348;-40
2021/04/03 06:45:37;;;;;;;8.30;6.05;;;;;;;31.38;36.38;100513.84;5041968;28;66472;-40
2021/04/03 06:48:12;;;;;;;8.45;6.45;;;;;;;31.40;36.49;100511.75;5051225;28;69732;-40
2021/04/03 06:50:47;;;;;;;12.98;6.75;;;;;;;31.47;36.64;100509.72;5043851;28;66054;-41
2021/04/03 06:53:19;;;;;;;9.70;6.72;;;;;;;31.40;37.02;100500.91;5044015;28;70106;-40
2021/04/03 06:55:50;;;;;;;12.07;6.68;;;;;;;31.41;37.16;100501.72;5050377;28;65999;-40
2021/04/03 06:58:21;;;;;;;7.22;6.50;;;;;;;31.38;36.83;100503.00;5056941;28;69709;-39
2021/04/03 07:00:51;;;;;;;7.78;7.20;;;;;;;31.33;36.83;100494.72;5044685;28;65198;-39
2021/04/03 07:03:23;;;;;;;7.35;6.80;;;;;;;31.37;36.41;100491.34;5057704;28;69172;-39
2021/04/03 07:05:57;;;;;;;8.80;7.50;;;;;;;31.35;36.68;100482.59;5059085;28;66082;-40
2021/04/03 07:08:31;;;;;;;7.90;6.53;;;;;;;31.34;36.12;100477.38;5050641;28;71077;-41
2021/04/03 07:11:04;;;;;;;7.68;7.05;;;;;;;31.39;36.61;100482.97;5045704;28;65680;-41
2021/04/03 07:13:39;;;;;;;7.63;7.03;;;;;;;31.37;36.05;100477.78;5046230;28;70538;-40
2021/04/03 07:16:11;;;;;;;7.03;6.72;;;;;;;31.33;36.13;100462.19;5049689;28;66044;-41
2021/04/03 07:18:41;;;;;;;7.75;7.07;;;;;;;31.45;36.10;100486.63;5057927;28;70286;-40
2021/04/03 07:21:11;;;;;;;7.20;6.80;;;;;;;31.48;36.02;100470.75;5054203;28;65995;-40
2021/04/03 07:23:44;;;;;;;7.70;7.05;;;;;;;31.45;35.77;100454.91;5058741;28;69879;-39
2021/04/03 07:26:19;;;;;;;7.72;7.13;;;;;;;31.53;35.38;100453.75;5055806;28;66127;-39
2021/04/03 07:28:49;;;;;;;12.80;7.40;;;;;;;31.54;35.44;100450.81;5052663;28;70202;-40
2021/04/03 07:31:38;;;;;;;16.25;7.45;;;;;;;31.45;34.80;100444.06;5047460;28;65925;-40
2021/04/03 07:34:09;;;;;;;11.75;7.30;;;;;;;31.60;35.13;100435.50;5055479;28;69572;-40
2021/04/03 07:36:41;;;;;;;8.20;7.50;;;;;;;31.59;35.05;100439.25;5057548;28;65223;-40
2021/04/03 07:39:35;;;;;;;7.80;7.03;;;;;;;31.59;34.23;100434.69;5052280;28;70717;-40
2021/04/03 07:42:07;;;;;;;11.95;7.00;;;;;;;31.66;35.46;100428.31;5053718;28;65936;-40
2021/04/03 07:44:40;;;;;;;7.50;7.00;;;;;;;31.74;34.93;100428.78;5055715;28;69683;-40
2021/04/03 07:47:22;;;;;;;9.00;7.68;;;;;;;31.81;34.38;100420.50;5055171;28;65075;-40
2021/04/03 07:49:54;;;;;;;7.78;7.05;;;;;;;31.81;34.54;100423.22;5059620;28;71810;-39
2021/04/03 07:52:56;;;;;;;12.43;8.48;;;;;;;32.12;45.61;100419.28;5057980;28;65853;-40
2021/04/03 07:55:33;;;;;;;;;;;;;;;32.46;45.21;100423.00;5030210;28;70235;-40
2021/04/03 07:58:24;;;;;;;10.70;9.75;;;;;;;32.76;46.89;100416.47;5044711;28;66226;-40
2021/04/03 08:01:16;;;;;;;10.75;9.88;;;;;;;33.02;47.14;100408.81;5056092;28;69839;-40
2021/04/03 08:03:59;;;;;;;10.98;10.25;;;;;;;33.18;48.74;100407.16;5040740;28;66310;-40
2021/04/03 08:06:32;;;;;;;12.27;10.90;;;;;;;33.32;47.85;100406.59;5044787;28;70835;-40
2021/04/03 08:09:10;;;;;;;;;;;;;;;33.42;48.89;100399.66;5058204;28;65867;-40
2021/04/03 08:11:43;;;;;;;11.60;10.68;;;;;;;33.56;48.50;100395.53;5059781;28;70050;-40
2021/04/03 08:14:15;;;;;;;11.25;10.30;;;;;;;33.64;48.08;100403.28;5049892;28;66806;-40
2021/04/03 08:16:46;;;;;;;10.45;9.85;;;;;;;33.69;48.54;100384.31;5048749;28;69837;-39
2021/04/03 08:19:31;;;;;;;10.70;10.00;;;;;;;33.76;49.48;100384.94;5059274;28;64888;-40
2021/04/03 08:22:07;;;;;;;11.05;10.05;;;;;;;33.90;48.93;100385.38;5051709;28;70559;-39
2021/04/03 08:24:37;;;;;;;12.05;11.10;;;;;;;34.04;49.20;100388.53;5054632;28;66458;-40
2021/04/03 08:27:09;;;;;;;11.52;10.93;;;;;;;34.13;49.11;100380.78;5054172;28;69185;-39
2021/04/03 08:29:39;;;;;;;11.65;10.52;;;;;;;34.19;48.95;100377.88;5053898;28;65983;-41
2021/04/03 08:32:09;;;;;;;10.63;9.82;;;;;;;34.26;48.92;100374.94;5058804;28;70047;-42
2021/04/03 08:34:45;;;;;;;11.18;10.15;;;;;;;34.30;49.41;100370.66;5055962;28;66527;-40
2021/04/03 08:37:17;;;;;;;11.00;10.20;;;;;;;34.40;49.16;100375.38;5058202;28;70055;-40
2021/04/03 08:39:47;;;;;;;11.30;10.60;;;;;;;34.42;49.37;100384.94;5051806;28;66498;-39
2021/04/03 08:42:20;;;;;;;11.73;9.93;;;;;;;34.43;49.84;100381.13;5055581;28;70800;-38
2021/04/03 08:44:51;;;;;;;11.55;10.38;;;;;;;34.45;49.78;100389.03;5057580;28;65769;-38
2021/04/03 08:47:21;;;;;;;11.95;11.07;;;;;;;34.51;50.12;100388.00;5057203;28;69816;-38
2021/04/03 08:49:51;;;;;;;13.50;10.52;;;;;;;34.55;50.79;100386.44;5050486;28;65672;-42
2021/04/03 08:52:28;;;;;;;11.50;10.50;;;;;;;34.51;51.64;100393.47;5048131;28;70501;-45
2021/04/03 08:55:00;;;;;;;12.70;11.40;;;;;;;34.45;50.90;100386.31;5053181;28;65339;-45
2021/04/03 08:57:31;;;;;;;12.05;10.95;;;;;;;34.56;51.66;100407.16;5055422;28;70346;-44
2021/04/03 09:00:04;;;;;;;11.67;10.97;;;;;;;34.50;51.74;100391.81;5056849;28;66476;-44
2021/04/03 09:02:35;;;;;;;12.15;11.20;;;;;;;34.60;51.70;100396.56;5055074;28;70662;-44
2021/04/03 09:05:06;;;;;;;11.48;10.77;;;;;;;34.61;52.00;100393.59;5058912;28;65337;-44
2021/04/03 09:07:41;;;;;;;11.98;10.82;;;;;;;34.68;51.61;100405.09;5058139;28;71205;-43
2021/04/03 09:10:20;;;;;;;10.93;10.13;;;;;;;34.67;52.39;100406.19;5054084;28;65295;-43
2021/04/03 09:12:52;;;;;;;11.38;10.35;;;;;;;34.76;51.69;100403.00;5050896;28;69501;-42
2021/04/03 09:15:28;;;;;;;10.93;10.07;;;;;;;34.72;52.32;100407.34;5057587;28;66459;-44
2021/04/03 09:18:09;;;;;;;13.55;10.50;;;;;;;34.77;51.69;100410.09;5054195;28;70258;-43
2021/04/03 09:20:50;;;;;;;11.32;10.23;;;;;;;34.79;52.35;100408.75;5040290;28;66109;-41
2021/04/03 09:23:24;;;;;;;11.35;10.18;;;;;;;34.83;52.20;100407.16;5053735;28;69113;-40
2021/04/03 09:26:04;;;;;;;10.23;9.52;;;;;;;34.85;52.07;100409.63;5045899;28;65095;-40
2021/04/03 09:28:42;;;;;;;11.13;10.05;;;;;;;34.86;52.08;100414.00;5048350;28;69051;-39
2021/04/03 09:31:16;;;;;;;10.15;9.20;;;;;;;34.91;51.36;100406.69;5053122;28;66058;-38
2021/04/03 09:33:49;;;;;;;10.63;9.70;;;;;;;34.92;51.12;100405.59;5055357;28;69922;-41
2021/04/03 09:36:19;;;;;;;12.70;9.32;;;;;;;34.90;51.06;100406.94;5055027;28;65843;-40
2021/04/03 09:38:50;;;;;;;9.80;8.90;;;;;;;34.91;51.23;100403.97;5050826;28;69904;-39
2021/04/03 09:41:27;;;;;;;15.63;9.27;;;;;;;34.92;51.61;100415.69;5057672;28;65979;-38
2021/04/03 09:43:57;;;;;;;9.20;8.43;;;;;;;34.97;51.46;100413.00;5055739;28;70316;-38
2021/04/03 09:46:29;;;;;;;16.50;7.57;;;;;;;34.96;50.87;100416.78;5057228;28;66499;-44
2021/04/03 09:49:00;;;;;;;7.90;7.10;;;;;;;34.92;51.06;100410.22;5044826;28;69949;-37
2021/04/03 09:51:30;;;;;;;6.88;6.28;;;;;;;34.94;51.33;100424.44;5051882;28;65926;-40
2021/04/03 09:54:01;;;;;;;8.27;6.88;;;;;;;34.89;51.28;100413.47;5027584;28;69976;-38
2021/04/03 09:56:32;;;;;;;8.40;6.97;;;;;;;34.92;51.49;100415.69;5059112;28;65499;-38
2021/04/03 09:59:03;;;;;;;6.93;6.32;;;;;;;34.94;50.92;100418.97;5056789;28;70026;-37
2021/04/03 10:01:34;;;;;;;;;;;;;;;34.79;51.15;100427.81;5048512;28;66300;-39
2021/04/03 10:04:04;;;;;;;7.25;5.95;;;;;;;34.92;50.90;100418.41;5051452;28;69946;-38
2021/04/03 10:06:40;;;;;;;8.75;5.40;;;;;;;34.87;50.69;100423.81;5055314;28;65433;-39
2021/04/03 10:09:10;;;;;;;5.35;4.85;;;;;;;34.86;50.89;100428.44;5056172;28;69292;-38
2021/04/03 10:11:41;;;;;;;13.32;5.88;;;;;;;34.83;50.88;100428.16;5047677;28;66770;-38
2021/04/03 10:14:11;;;;;;;8.73;6.05;;;;;;;34.82;50.77;100429.22;5044520;28;69898;-39
2021/04/03 10:16:42;;;;;;;12.25;6.10;;;;;;;34.78;50.98;100436.25;5044914;28;66114;-41
2021/04/03 10:19:12;;;;;;;12.50;6.03;;;;;;;34.83;51.46;100439.03;5049769;28;70098;-39
2021/04/03 10:21:43;;;;;;;5.38;4.88;;;;;;;34.81;51.38;100438.47;5052667;28;65883;-39
2021/04/03 10:24:13;;;;;;;10.88;5.53;;;;;;;34.85;51.22;100436.84;5048559;28;68906;-40
2021/04/03 10:26:43;;;;;;;10.48;5.30;;;;;;;34.84;51.44;100444.22;5053182;28;65911;-37
2021/04/03 10:29:14;;;;;;;9.33;4.97;;;;;;;34.82;51.34;100435.47;5049890;28;69099;-40
2021/04/03 10:31:44;;;;;;;5.18;4.85;;;;;;;34.80;51.38;100447.72;5052834;28;65246;-41
2021/04/03 10:34:15;;;;;;;6.35;5.20;;;;;;;34.85;51.40;100447.75;5047550;28;69634;-38
2021/04/03 10:36:45;;;;;;;7.13;5.75;;;;;;;34.75;50.92;100458.56;5040868;28;65694;-38
2021/04/03 10:39:15;;;;;;;9.55;5.30;;;;;;;34.73;51.38;100456.09;5054630;28;69706;-34
2021/04/03 10:41:45;;;;;;;7.95;4.47;;;;;;;34.69;50.91;100463.97;5052120;28;65168;-37
2021/04/03 10:44:15;;;;;;;6.35;5.90;;;;;;;34.70;50.80;100467.50;5045131;28;70488;-35
2021/04/03 10:46:46;;;;;;;11.02;6.47;;;;;;;34.64;50.80;100458.47;5049623;28;65970;-42
2021/04/03 10:49:19;;;;;;;6.32;5.82;;;;;;;34.63;50.23;100462.28;5044644;28;70140;-42
2021/04/03 10:51:50;;;;;;;6.35;5.85;;;;;;;34.60;50.49;100470.97;5046113;28;66159;-41
2021/04/03 10:54:22;;;;;;;8.18;6.13;;;;;;;34.61;49.92;100463.59;5043826;28;68980;-37
2021/04/03 10:56:51;;;;;;;;;;;;;;;34.43;50.22;100472.88;5049587;28;65123;-38
2021/04/03 10:59:21;;;;;;;8.75;5.82;;;;;;;34.51;49.90;100475.16;5046180;28;69926;-40
2021/04/03 11:01:53;;;;;;;7.97;6.23;;;;;;;34.44;50.00;100480.00;5048457;28;66329;-37
2021/04/03 11:04:23;;;;;;;6.88;5.93;;;;;;;34.44;49.99;100475.38;5047961;28;70581;-38
2021/04/03 11:06:54;;;;;;;7.00;5.45;;;;;;;34.42;49.89;100482.97;5038360;28;66743;-38
2021/04/03 11:09:27;;;;;;;6.88;5.10;;;;;;;34.40;50.09;100479.66;5048840;28;71078;-38
2021/04/03 11:11:58;;;;;;;6.57;5.83;;;;;;;34.31;50.13;100491.25;5044777;28;65917;-38
2021/04/03 11:14:29;;;;;;;7.43;6.70;;;;;;;34.33;50.56;100486.41;5048451;28;70170;-36
2021/04/03 11:16:59;;;;;;;7.40;5.15;;;;;;;34.28;50.59;100489.06;5046086;28;64894;-36
2021/04/03 11:19:29;;;;;;;6.10;5.68;;;;;;;34.18;51.07;100487.81;5041963;28;68830;-36
2021/04/03 11:21:59;;;;;;;9.23;5.45;;;;;;;34.19;51.09;100489.50;5046015;28;65965;-35
2021/04/03 11:24:34;;;;;;;8.10;5.63;;;;;;;34.19;51.59;100494.94;5040718;28;70269;-38
2021/04/03 11:27:05;;;;;;;21.58;5.68;;;;;;;34.15;51.71;100498.41;5045250;28;66195;-38
2021/04/03 11:29:48;;;;;;;10.93;5.93;;;;;;;34.09;52.02;100494.78;5047613;28;69819;-36
2021/04/03 11:32:18;;;;;;;8.57;5.47;;;;;;;34.07;52.26;100491.50;5053671;28;65194;-38
2021/04/03 11:34:49;;;;;;;16.52;5.82;;;;;;;34.15;51.99;100488.34;5056026;28;70359;-33
2021/04/03 11:37:19;;;;;;;10.05;5.32;;;;;;;34.11;52.05;100492.66;5052148;28;66500;-32
2021/04/03 11:39:49;;;;;;;23.08;6.10;;;;;;;34.07;52.12;100499.66;5042477;28;69780;-34
2021/04/03 11:42:20;;;;;;;6.43;5.03;;;;;;;34.05;52.04;100496.38;5057985;28;65535;-35
2021/04/03 11:44:51;;;;;;;6.43;4.88;;;;;;;33.97;51.86;100496.78;5053071;28;69807;-33
2021/04/03 11:47:23;;;;;;;12.30;5.30;;;;;;;33.96;52.30;100495.13;5049321;28;65665;-34
2021/04/03 11:50:00;;;;;;;11.93;4.55;;;;;;;33.93;52.52;100495.63;5046327;28;69996;-34